Hauptseite
METAR-TAF:

METAR-TAF

Flughäfen :

Flughafen Wellington

Wellington, Neuseeland

Breite: 41-20S, Länge: 174-48E, Höhe: 12 m

Beobachtung

Neuester Wetterbericht von vor 36 Minuten, um 07:30 UTC
Wind 13 kt aus Süd/Südost
Temperatur 17°C
Luftfeuchtigkeit 77%
Luftdruck 1026 hPa
Sichtweite 10 km oder mehr

METAR: NZWN 200730Z AUTO 15013KT 9999 BKN046/// 17/13 Q1026 NOSIG

Zeit: 21:06 (08:06 UTC)

Prognose

Neuester Wetterbericht von vor 2 Stunden und 53 Minuten, um 05:13 UTC
Gültige Prognose vom 20 um 06 UTC bis 21 um 06 UTC
Wind 15 kt aus Süd
Sichtweite 10 km oder mehr
Leicht bewölkt in der Höhe von 1500 ft
Durchbrochene Bewölkung in der Höhe von 4000 ft
Übergehend zu
vom 20 um 08 UTC bis 20 um 10 UTC
Wind 5 kt aus Süd/Südost

TAF: NZWN 200513Z 2006/2106 18015KT 9999 FEW015 BKN040 BECMG 2008/2010 16005KT

Wetterbeobachtungen und Prognosen von mehr als 4000 Flughäfen (METAR und TAF Bericht).

Die verfügbaren Stationen werden durch gelbe und rote Markierungen auf der Karte dargestellt.

Führen Sie die Maus auf sie, um den Namen der Station zu sehen.

Darauf klicken, um die Beobachtung von Wetterbeobachtungen und Prognosen zu sehen.

Um die Karte zu ändern : klicken Sie auf den grünen Tasten mit einem schwarzen Kreuz Zum Vergrößern, auf den grünen Button mit einem Gedankenstrich zu verkleinern, oder auf die grünen Pfeile für benachbarte Karten.


METAR-TAF: